createdAt,value
2024-01-29T00:04:18.338Z,1000.00
2024-01-29T00:19:19.011Z,1000.00
2024-01-29T00:34:19.644Z,1000.00
2024-01-29T00:49:20.287Z,1000.00
2024-01-29T01:04:20.835Z,1000.00
2024-01-29T01:19:21.418Z,1000.00
2024-01-29T01:34:22.189Z,1000.00
2024-01-29T01:49:22.507Z,1000.00
2024-01-29T02:04:23.432Z,1000.00
2024-01-29T02:19:23.517Z,1000.00
2024-01-29T02:34:24.152Z,1000.00
2024-01-29T02:49:24.901Z,1000.00
2024-01-29T03:04:25.467Z,1000.00
2024-01-29T03:19:26.019Z,681.47
2024-01-29T03:34:26.539Z,610.74
2024-01-29T03:49:27.353Z,973.97
2024-01-29T04:04:27.910Z,546.22
2024-01-29T04:19:28.433Z,1000.00
2024-01-29T04:34:28.935Z,1000.00
2024-01-29T04:49:29.331Z,1000.00
2024-01-29T05:04:29.874Z,1000.00
2024-01-29T05:19:30.451Z,1000.00
2024-01-29T05:34:30.744Z,1000.00
2024-01-29T05:49:31.509Z,1000.00
2024-01-29T06:04:31.970Z,1000.00
2024-01-29T06:19:32.418Z,1000.00
2024-01-29T06:34:32.800Z,1000.00
2024-01-29T06:49:33.421Z,1000.00
2024-01-29T07:04:34.063Z,1000.00
2024-01-29T07:19:34.979Z,1000.00
2024-01-29T07:34:35.372Z,1000.00
2024-01-29T08:04:36.254Z,1000.00
2024-01-29T08:19:36.662Z,1000.00
2024-01-29T08:34:36.984Z,1000.00
2024-01-29T08:49:37.721Z,1000.00
2024-01-29T09:04:38.477Z,1000.00
2024-01-29T09:19:38.923Z,1000.00
2024-01-29T09:34:39.742Z,1000.00
2024-01-29T09:49:40.492Z,1000.00
2024-01-29T10:04:41.222Z,1000.00
2024-01-29T10:19:41.880Z,1000.00
2024-01-29T10:34:42.601Z,1000.00
2024-01-29T10:49:42.989Z,1000.00
2024-01-29T11:04:44.124Z,1000.00
2024-01-29T11:19:44.218Z,1000.00
2024-01-29T11:34:44.715Z,1000.00
2024-01-29T11:49:45.590Z,1000.00
2024-01-29T12:04:46.270Z,1000.00
2024-01-29T12:19:46.732Z,1000.00
2024-01-29T12:34:47.354Z,1000.00
2024-01-29T12:49:48.114Z,1000.00
2024-01-29T13:04:48.309Z,1000.00
2024-01-29T13:19:49.078Z,1000.00
2024-01-29T13:34:49.681Z,1000.00
2024-01-29T13:49:49.980Z,1000.00
2024-01-29T14:04:51.885Z,1000.00
2024-01-29T14:19:55.494Z,233.15
2024-01-29T14:34:53.600Z,1000.00
2024-01-29T14:49:52.880Z,662.49
2024-01-29T15:04:53.893Z,1000.00
2024-01-29T15:19:54.484Z,1000.00
2024-01-29T15:34:55.181Z,1000.00
2024-01-29T15:49:55.511Z,1000.00
2024-01-29T16:04:56.086Z,1000.00
2024-01-29T16:19:57.350Z,1000.00
2024-01-29T16:34:57.708Z,1000.00
2024-01-29T16:49:58.172Z,1000.00
2024-01-29T17:04:59.037Z,1000.00
2024-01-29T17:19:59.427Z,1000.00
2024-01-29T17:34:59.851Z,1000.00
2024-01-29T17:50:00.178Z,1000.00
2024-01-29T18:05:00.513Z,809.96
2024-01-29T18:20:01.374Z,679.99
2024-01-29T18:35:02.092Z,295.91
2024-01-29T18:50:02.702Z,457.17
2024-01-29T19:05:03.289Z,144.52
2024-01-29T19:20:03.701Z,144.89
2024-01-29T19:35:04.152Z,83.92
2024-01-29T19:50:04.695Z,58.50
2024-01-29T20:05:05.055Z,41.92
2024-01-29T20:20:05.501Z,30.33
2024-01-29T20:35:06.060Z,37.12
2024-01-29T20:50:06.775Z,28.26
2024-01-29T21:05:07.242Z,24.48
2024-01-29T21:20:07.741Z,17.34
2024-01-29T21:35:08.161Z,20.19
2024-01-29T21:50:08.597Z,19.44
2024-01-29T22:05:08.998Z,20.73
2024-01-29T22:20:09.636Z,16.46
2024-01-29T22:35:10.534Z,15.35
2024-01-29T22:50:10.984Z,13.89
2024-01-29T23:05:11.415Z,14.41
2024-01-29T23:20:11.868Z,13.37
2024-01-29T23:35:12.347Z,12.97
2024-01-29T23:50:12.838Z,10.26
